Terminal Aerodrome Forecast
Issued by NWS

Home | Current Version | Previous Version | Text Only | Print | Product List | Glossary On
Versions: 1 2 3 4 5 6 7 8 9 10 11 12 13 14 15 16 17 18 19 20
000
FTUS41 KCAR 242334
TAFBHB
TAF
KBHB 242334Z 2500/2524 05015G25KT 4SM -RA OVC007
     FM250300 04012G22KT 3SM -RA OVC003
     FM251100 03007KT P6SM OVC005
     FM251300 03007KT P6SM OVC007
     FM252000 31010G20KT P6SM BKN015=

USA.gov is the U.S. government's official web portal to all federal, state and local government web resources and services.